Nearby METAR Reports

 

KFNL - Ft Collins/Lovel, Colorado, USA
Distance from station: E 23mi, 37km
Updated: Fri, 16-Apr-2021 10:56pm MDT
Clear
Clear
 Wind from NE
Wind: NE 7 mph , 11 km/h
Temperature: 30°F , -1°C
Wind Chill: 23°F , -5°C
Dew Point: 27°F , -3°C
Humidity: 86%
Barometer: 30.25 inHg , 1024.4 hPa
Clouds: Clear
Visibility: 10 miles , 16 km
2021/04/17 04:56 KFNL 170456Z 04006KT 10SM CLR M01/M03 A3025 RMK AO2 SLP261 T10061033 FZRANO
KLMO - Longmont/Vbrand, Colorado, USA
Distance from station: SE 26mi, 41km
Updated: Fri, 16-Apr-2021 10:55pm MDT
Overcast
Overcast
 Wind from NE
Wind: NE 6 mph , 9 km/h
Temperature: 36°F , 2°C
Wind Chill: 31°F , -1°C
Dew Point: 27°F , -3°C
Humidity: 70%
Barometer: 30.28 inHg , 1025.4 hPa
Clouds: Overcast
Visibility: 10 miles , 16 km
Cloud details: Overcast 4900 ft
2021/04/17 04:55 KLMO 170455Z AUTO 04005KT 10SM OVC049 02/M03 A3028 RMK AO2 T00211033
 
KBDU - Boulder Muni, Colorado, USA
Distance from station: SSE 32mi, 52km
Updated: Fri, 16-Apr-2021 10:55pm MDT
Light snow, Mostly cloudy
Light snow, Mostly cloudy
 Wind from calm
Wind: Calm
Temperature: 32°F , 0°C
Dew Point: 28°F , -2°C
Humidity: 87%
Barometer: 30.26 inHg , 1024.7 hPa
Summary: Light Snow
Clouds: Mostly cloudy
Visibility: 4 miles , 6 km
Cloud details: Mostly cloudy 800 ft
Mostly cloudy 1200 ft
Mostly cloudy 3400 ft
2021/04/17 04:55 KBDU 170455Z AUTO 00000KT 4SM -SN BKN008 BKN012 BKN034 00/M02 A3026 RMK AO2
KEIK - Erie Muni, Colorado, USA
Distance from station: SE 38mi, 61km
Updated: Fri, 16-Apr-2021 10:55pm MDT
Overcast
Overcast
 Wind from W
Wind: W 6 mph , 9 km/h
Temperature: 32°F , 0°C
Wind Chill: 26°F , -3°C
Dew Point: 30°F , -1°C
Humidity: 93%
Barometer: 30.26 inHg , 1024.7 hPa
Clouds: Overcast
Visibility: 10 miles , 16 km
Cloud details: Partly cloudy 2300 ft
Mostly cloudy 4300 ft
Overcast 5000 ft
2021/04/17 04:55 KEIK 170455Z AUTO 27005KT 10SM SCT023 BKN043 OVC050 00/M01 A3026 RMK AO2 T00001013
 
KBJC - Broomfield/Jeffc, Colorado, USA
Distance from station: SSE 44mi, 70km
Updated: Fri, 16-Apr-2021 9:47pm MDT
NOT Current
Light snow, Overcast
Light snow, Overcast
 Wind from N
Wind: N 6 mph , 9 km/h
Temperature: 32°F , 0°C
Wind Chill: 26°F , -3°C
Dew Point: 30°F , -1°C
Humidity: 93%
Barometer: 30.24 inHg , 1024 hPa
Summary: Light Snow
Clouds: Overcast
Visibility: 7 miles , 11 km
Cloud details: Few Clouds 500 ft
Mostly cloudy 1200 ft
Overcast 3000 ft
2021/04/17 03:47 KBJC 170347Z 01005KT 7SM -SN FEW005 BKN012 OVC030 00/M01 A3024
KGXY - Greeley/Weld, Colorado, USA
Distance from station: E 44mi, 71km
Updated: Fri, 16-Apr-2021 10:56pm MDT
Clear
Clear
 Wind from NNW
Wind: NNW 9 mph , 15 km/h
Barometer: 30.26 inHg , 1024.7 hPa
Clouds: Clear
Visibility: 10 miles , 16 km
2021/04/17 04:56 KGXY 170456Z 33008KT 10SM CLR A3026 RMK AO2 SLPNO FZRANO $
 
K33V - Walden, Colorado, USA
Distance from station: WNW 48mi, 77km
Updated: Fri, 16-Apr-2021 10:55pm MDT
Clear
Clear
 Wind from N
Wind: N 3 mph , 6 km/h
Temperature: 21°F , -6°C
Dew Point: 14°F , -10°C
Humidity: 74%
Barometer: 30.18 inHg , 1022 hPa
Clouds: Clear
Visibility: 10 miles , 16 km
2021/04/17 04:55 K33V 170455Z AUTO 36003KT 10SM CLR M06/M10 A3018 RMK AO2 T10621105
K0CO - Berthoud Pass, Colorado, USA
Distance from station: SSW 49mi, 79km
Updated: Fri, 16-Apr-2021 10:55pm MDT
Haze, Overcast
Haze, Overcast
 Wind from SE
Wind: SE 17 mph , 28 km/h, Gust: 24 mph , 39 km/h
Temperature: 5°F , -15°C
Wind Chill: -14°F , -26°C
Dew Point: -8°F , -22°C
Humidity: 55%
Barometer: 30.10 inHg , 1019.3 hPa
Summary: Haze
Clouds: Overcast
Visibility: less than 1/4 mile , 0.4 km
Cloud details: Overcast 200 ft
2021/04/17 04:55 K0CO 170455Z AUTO 14015G21KT M1/4SM HZ OVC002 M15/M22 A3010 RMK AO2